createdAt,value
2022-12-31T00:02:19.131Z,4.70
2022-12-31T00:04:45.871Z,3.33
2022-12-31T00:07:12.557Z,3.85
2022-12-31T00:09:39.246Z,3.17
2022-12-31T00:12:06.208Z,3.10
2022-12-31T00:14:32.933Z,3.30
2022-12-31T00:16:59.667Z,2.78
2022-12-31T00:19:26.437Z,2.95
2022-12-31T00:21:53.131Z,2.72
2022-12-31T00:24:19.812Z,2.65
2022-12-31T00:26:46.914Z,2.55
2022-12-31T00:29:13.607Z,2.90
2022-12-31T00:31:40.327Z,3.33
2022-12-31T00:34:07.362Z,2.63
2022-12-31T00:36:37.457Z,2.83
2022-12-31T00:39:06.041Z,2.40
2022-12-31T00:41:33.290Z,2.97
2022-12-31T00:44:00.211Z,2.20
2022-12-31T00:46:27.647Z,2.60
2022-12-31T00:48:54.373Z,2.90
2022-12-31T00:51:23.416Z,2.25
2022-12-31T00:53:50.141Z,2.33
2022-12-31T00:56:20.502Z,2.28
2022-12-31T00:58:48.312Z,2.35
2022-12-31T01:01:18.430Z,2.20
2022-12-31T01:03:46.474Z,2.60
2022-12-31T01:06:13.310Z,2.50
2022-12-31T01:08:40.037Z,2.90
2022-12-31T01:11:07.299Z,2.55
2022-12-31T01:13:34.387Z,2.70
2022-12-31T01:16:08.231Z,2.40
2022-12-31T01:18:35.176Z,2.88
2022-12-31T01:21:07.244Z,2.55
2022-12-31T01:23:34.125Z,3.00
2022-12-31T01:26:02.715Z,2.80
2022-12-31T01:28:29.896Z,3.42
2022-12-31T01:30:57.041Z,2.70
2022-12-31T01:33:24.524Z,2.40
2022-12-31T01:35:51.216Z,1.80
2022-12-31T01:38:17.904Z,2.03
2022-12-31T01:40:44.580Z,1.90
2022-12-31T01:43:21.049Z,1.42
2022-12-31T01:45:52.113Z,1.65
2022-12-31T01:48:24.071Z,1.20
2022-12-31T01:50:52.233Z,1.13
2022-12-31T01:53:19.195Z,1.20
2022-12-31T01:56:04.301Z,1.40
2022-12-31T01:58:42.844Z,1.05
2022-12-31T02:01:13.378Z,1.17
2022-12-31T02:03:40.559Z,1.10
2022-12-31T02:06:19.154Z,1.33
2022-12-31T02:08:46.194Z,1.50
2022-12-31T02:11:42.363Z,1.38
2022-12-31T02:14:18.017Z,0.68
2022-12-31T02:16:50.289Z,1.55
2022-12-31T02:19:37.951Z,1.45
2022-12-31T02:22:16.403Z,0.77
2022-12-31T02:25:16.824Z,1.15
2022-12-31T02:27:58.150Z,1.05
2022-12-31T02:30:26.196Z,1.98
2022-12-31T02:33:05.975Z,1.30
2022-12-31T02:35:56.527Z,1.48
2022-12-31T02:38:34.188Z,1.70
2022-12-31T02:41:01.643Z,1.15
2022-12-31T02:43:28.878Z,1.08
2022-12-31T02:46:17.324Z,1.45
2022-12-31T02:48:54.158Z,1.10
2022-12-31T02:51:37.699Z,1.13
2022-12-31T02:54:30.497Z,0.95
2022-12-31T02:57:15.370Z,1.20
2022-12-31T02:59:57.640Z,1.40
2022-12-31T03:02:27.759Z,3.33
2022-12-31T03:05:00.588Z,2.33
2022-12-31T03:07:29.467Z,1.73
2022-12-31T03:09:56.439Z,1.20
2022-12-31T03:12:27.028Z,0.90
2022-12-31T03:14:53.880Z,1.15
2022-12-31T03:17:20.994Z,0.90
2022-12-31T03:19:47.870Z,0.93
2022-12-31T03:22:14.742Z,0.80
2022-12-31T03:24:41.543Z,1.00
2022-12-31T03:27:08.192Z,0.90
2022-12-31T03:29:34.863Z,0.80
2022-12-31T03:32:01.659Z,0.60
2022-12-31T03:34:28.362Z,0.70
2022-12-31T03:36:55.068Z,0.80
2022-12-31T03:39:21.720Z,0.73
2022-12-31T03:41:48.354Z,0.80
2022-12-31T03:44:15.062Z,0.68
2022-12-31T03:46:41.767Z,0.90
2022-12-31T03:49:08.428Z,1.10
2022-12-31T03:51:35.149Z,0.80
2022-12-31T03:54:01.836Z,0.90
2022-12-31T03:56:28.537Z,0.90
2022-12-31T03:58:55.268Z,0.80
2022-12-31T04:01:22.036Z,0.80
2022-12-31T04:03:48.766Z,0.98
2022-12-31T04:06:15.531Z,0.77
2022-12-31T04:08:42.183Z,0.90
2022-12-31T04:11:08.905Z,0.77
2022-12-31T04:13:35.639Z,0.80
2022-12-31T04:16:02.381Z,0.80
2022-12-31T04:18:29.067Z,0.80
2022-12-31T04:21:00.740Z,0.75
2022-12-31T04:23:27.398Z,0.70
2022-12-31T04:25:54.108Z,0.75
2022-12-31T04:28:20.835Z,0.57
2022-12-31T04:30:47.487Z,0.60
2022-12-31T04:33:14.172Z,0.60
2022-12-31T04:35:41.118Z,0.80
2022-12-31T04:38:07.810Z,0.70
2022-12-31T04:40:34.452Z,0.50
2022-12-31T04:43:01.145Z,0.60
2022-12-31T04:45:27.821Z,0.65
2022-12-31T04:47:54.471Z,0.50
2022-12-31T04:50:21.178Z,0.60
2022-12-31T04:52:47.882Z,0.90
2022-12-31T04:55:14.535Z,0.63
2022-12-31T04:57:41.323Z,0.60
2022-12-31T05:00:08.635Z,0.52
2022-12-31T05:02:35.437Z,0.50
2022-12-31T05:05:02.296Z,0.60
2022-12-31T05:07:28.975Z,0.50
2022-12-31T05:09:55.663Z,0.60
2022-12-31T05:12:22.382Z,0.70
2022-12-31T05:14:49.042Z,0.60
2022-12-31T05:17:15.684Z,0.50
2022-12-31T05:19:42.376Z,0.50
2022-12-31T05:22:09.066Z,0.50
2022-12-31T05:24:35.740Z,0.50
2022-12-31T05:27:02.838Z,0.50
2022-12-31T05:29:29.496Z,0.60
2022-12-31T05:31:56.233Z,0.70
2022-12-31T05:34:22.926Z,0.40
2022-12-31T05:36:49.614Z,0.45
2022-12-31T05:39:16.351Z,0.60
2022-12-31T05:41:43.040Z,0.60
2022-12-31T05:44:11.026Z,0.70
2022-12-31T05:46:37.747Z,0.50
2022-12-31T05:49:04.477Z,0.75
2022-12-31T05:51:31.199Z,1.10
2022-12-31T05:53:57.812Z,0.95
2022-12-31T05:56:24.506Z,1.10
2022-12-31T05:58:51.160Z,1.10
2022-12-31T06:01:17.834Z,1.17
2022-12-31T06:03:44.552Z,1.48
2022-12-31T06:06:11.232Z,1.80
2022-12-31T06:08:37.879Z,1.20
2022-12-31T06:11:04.733Z,1.23
2022-12-31T06:13:31.494Z,1.00
2022-12-31T06:15:58.242Z,0.88
2022-12-31T06:18:25.065Z,0.95
2022-12-31T06:20:51.746Z,1.00
2022-12-31T06:23:18.398Z,1.30
2022-12-31T06:25:45.515Z,1.10
2022-12-31T06:28:17.977Z,1.63
2022-12-31T06:30:47.275Z,1.10
2022-12-31T06:33:14.016Z,1.20
2022-12-31T06:35:40.680Z,0.80
2022-12-31T06:38:07.408Z,0.73
2022-12-31T06:40:37.348Z,0.75
2022-12-31T06:43:04.036Z,0.70
2022-12-31T06:45:30.670Z,0.70
2022-12-31T06:47:57.311Z,0.68
2022-12-31T06:50:23.984Z,0.60
2022-12-31T06:52:50.615Z,0.50
2022-12-31T06:55:17.611Z,0.70
2022-12-31T06:57:44.565Z,0.45
2022-12-31T07:00:12.034Z,0.70
2022-12-31T07:03:00.575Z,0.50
2022-12-31T07:05:46.109Z,0.50
2022-12-31T07:08:54.821Z,0.50
2022-12-31T07:11:32.307Z,0.43
2022-12-31T07:14:22.271Z,0.40
2022-12-31T07:17:06.335Z,0.63
2022-12-31T07:19:57.806Z,0.40
2022-12-31T07:22:25.038Z,0.40
2022-12-31T07:24:52.316Z,0.52
2022-12-31T07:27:31.333Z,0.45
2022-12-31T07:30:01.127Z,0.38
2022-12-31T07:32:40.450Z,0.50
2022-12-31T07:35:09.852Z,0.35
2022-12-31T07:37:39.277Z,0.50
2022-12-31T07:40:42.242Z,0.50
2022-12-31T07:43:40.841Z,0.50
2022-12-31T07:46:19.220Z,0.50
2022-12-31T07:48:46.133Z,0.47
2022-12-31T07:51:13.219Z,0.50
2022-12-31T07:53:40.026Z,0.50
2022-12-31T07:56:09.355Z,0.70
2022-12-31T07:58:48.384Z,1.35
2022-12-31T08:01:28.795Z,1.50
2022-12-31T08:04:06.040Z,1.10
2022-12-31T08:07:04.682Z,1.05
2022-12-31T08:10:03.728Z,0.88
2022-12-31T08:12:34.550Z,1.00
2022-12-31T08:15:01.902Z,0.90
2022-12-31T08:17:28.841Z,0.82
2022-12-31T08:19:55.818Z,0.60
2022-12-31T08:23:03.614Z,0.68
2022-12-31T08:25:59.800Z,0.80
2022-12-31T08:28:48.126Z,0.60
2022-12-31T08:31:20.255Z,0.60
2022-12-31T08:34:06.998Z,0.60
2022-12-31T08:37:01.074Z,0.65
2022-12-31T08:39:51.929Z,0.68
2022-12-31T08:42:28.413Z,0.80
2022-12-31T08:45:13.850Z,0.70
2022-12-31T08:48:01.223Z,0.60
2022-12-31T08:50:28.557Z,0.52
2022-12-31T08:52:55.694Z,0.65
2022-12-31T08:55:22.781Z,0.70
2022-12-31T08:58:07.526Z,1.05
2022-12-31T09:00:38.401Z,0.85
2022-12-31T09:03:29.098Z,0.82
2022-12-31T09:06:13.839Z,1.42
2022-12-31T09:09:06.326Z,0.98
2022-12-31T09:12:10.573Z,0.80
2022-12-31T09:14:37.211Z,1.02
2022-12-31T09:17:38.915Z,1.55
2022-12-31T09:20:06.298Z,1.20
2022-12-31T09:22:33.136Z,1.02
2022-12-31T09:25:00.043Z,0.90
2022-12-31T09:27:42.612Z,0.85
2022-12-31T09:30:13.224Z,0.90
2022-12-31T09:33:03.470Z,0.60
2022-12-31T09:35:48.221Z,0.80
2022-12-31T09:38:33.786Z,0.80
2022-12-31T09:41:17.116Z,0.70
2022-12-31T09:44:21.348Z,0.90
2022-12-31T09:46:50.854Z,0.70
2022-12-31T09:49:40.406Z,1.10
2022-12-31T09:52:09.626Z,0.70
2022-12-31T09:54:46.696Z,1.00
2022-12-31T09:57:13.347Z,1.00
2022-12-31T10:00:09.956Z,0.80
2022-12-31T10:05:38.459Z,0.70
2022-12-31T10:08:37.636Z,1.02
2022-12-31T10:11:26.305Z,1.08
2022-12-31T10:14:14.700Z,1.27
2022-12-31T10:16:53.155Z,1.52
2022-12-31T10:20:08.347Z,1.30
2022-12-31T10:26:23.185Z,0.90
2022-12-31T10:29:08.942Z,0.50
2022-12-31T10:31:50.618Z,0.60
2022-12-31T10:34:24.568Z,1.30
2022-12-31T10:37:08.131Z,0.80
2022-12-31T10:39:58.609Z,0.85
2022-12-31T10:42:34.167Z,0.70
2022-12-31T10:45:12.455Z,0.60
2022-12-31T10:47:44.822Z,0.73
2022-12-31T10:50:35.523Z,0.98
2022-12-31T10:53:26.051Z,0.70
2022-12-31T10:56:14.992Z,0.73
2022-12-31T10:58:56.121Z,0.70
2022-12-31T11:01:31.867Z,0.57
2022-12-31T11:04:17.451Z,0.70
2022-12-31T11:07:04.079Z,0.70
2022-12-31T11:09:34.858Z,0.52
2022-12-31T11:12:31.898Z,0.80
2022-12-31T11:15:18.531Z,0.73
2022-12-31T11:18:06.376Z,0.70
2022-12-31T11:20:39.271Z,0.90
2022-12-31T11:23:24.523Z,0.77
2022-12-31T11:26:10.009Z,0.73
2022-12-31T11:29:04.530Z,0.80
2022-12-31T11:31:38.753Z,1.00
2022-12-31T11:34:11.631Z,1.00
2022-12-31T11:36:57.006Z,0.80
2022-12-31T11:39:31.484Z,0.95
2022-12-31T11:42:07.535Z,0.90
2022-12-31T11:45:08.554Z,1.08
2022-12-31T11:48:28.364Z,0.98
2022-12-31T11:51:07.995Z,1.20
2022-12-31T11:53:52.799Z,1.08
2022-12-31T11:56:23.292Z,1.52
2022-12-31T11:58:52.884Z,1.40
2022-12-31T12:01:30.056Z,1.70
2022-12-31T12:03:57.652Z,1.73
2022-12-31T12:06:31.597Z,1.65
2022-12-31T12:09:10.442Z,1.70
2022-12-31T12:11:41.064Z,1.55
2022-12-31T12:14:21.696Z,1.38
2022-12-31T12:17:04.082Z,1.08
2022-12-31T12:19:33.640Z,1.25
2022-12-31T12:22:13.868Z,1.00
2022-12-31T12:24:40.681Z,1.10
2022-12-31T12:27:22.684Z,1.30
2022-12-31T12:29:49.454Z,1.70
2022-12-31T12:32:25.689Z,1.30
2022-12-31T12:34:52.862Z,1.20
2022-12-31T12:37:25.427Z,0.90
2022-12-31T12:39:57.863Z,1.50
2022-12-31T12:42:24.713Z,1.40
2022-12-31T12:45:01.772Z,1.25
2022-12-31T12:47:28.911Z,1.40
2022-12-31T12:49:55.970Z,1.20
2022-12-31T12:52:46.863Z,1.20
2022-12-31T12:55:32.164Z,1.10
2022-12-31T12:57:58.886Z,1.17
2022-12-31T13:00:42.757Z,1.20
2022-12-31T13:03:21.778Z,1.27
2022-12-31T13:06:11.910Z,1.70
2022-12-31T13:09:16.190Z,1.30
2022-12-31T13:11:53.628Z,1.50
2022-12-31T13:14:38.944Z,1.20
2022-12-31T13:17:29.822Z,1.20
2022-12-31T13:20:15.295Z,1.00
2022-12-31T13:22:41.945Z,1.40
2022-12-31T13:25:32.390Z,1.30
2022-12-31T13:28:03.855Z,1.27
2022-12-31T13:30:53.197Z,0.90
2022-12-31T13:33:25.563Z,1.08
2022-12-31T13:36:01.724Z,1.42
2022-12-31T13:38:43.506Z,1.40
2022-12-31T13:41:38.039Z,1.27
2022-12-31T13:44:30.334Z,1.15
2022-12-31T13:47:15.649Z,1.20
2022-12-31T13:50:19.577Z,1.20
2022-12-31T13:53:02.580Z,1.60
2022-12-31T13:55:59.395Z,1.40
2022-12-31T13:58:38.038Z,0.88
2022-12-31T14:01:10.745Z,1.13
2022-12-31T14:03:45.478Z,1.60
2022-12-31T14:06:33.322Z,1.73
2022-12-31T14:09:00.997Z,1.58
2022-12-31T14:11:53.268Z,2.35
2022-12-31T14:14:48.261Z,1.40
2022-12-31T14:17:59.532Z,1.80
2022-12-31T14:20:26.406Z,1.05
2022-12-31T14:23:17.814Z,1.08
2022-12-31T14:25:50.600Z,0.98
2022-12-31T14:28:23.833Z,1.10
2022-12-31T14:31:15.860Z,1.10
2022-12-31T14:34:15.937Z,1.40
2022-12-31T14:37:04.707Z,1.30
2022-12-31T14:40:04.015Z,1.55
2022-12-31T14:42:45.926Z,1.70
2022-12-31T14:45:27.753Z,1.50
2022-12-31T14:48:22.845Z,1.67
2022-12-31T14:50:49.954Z,1.52
2022-12-31T14:53:27.537Z,1.40
2022-12-31T14:56:05.876Z,1.30
2022-12-31T14:58:40.368Z,1.70
2022-12-31T15:01:20.218Z,1.85
2022-12-31T15:03:47.079Z,2.20
2022-12-31T15:06:22.616Z,2.30
2022-12-31T15:09:02.461Z,2.78
2022-12-31T15:11:57.184Z,2.80
2022-12-31T15:14:46.263Z,1.92
2022-12-31T15:17:42.426Z,2.42
2022-12-31T15:20:33.469Z,2.00
2022-12-31T15:23:00.244Z,2.50
2022-12-31T15:25:32.708Z,2.55
2022-12-31T15:28:30.155Z,2.50
2022-12-31T15:31:06.514Z,2.75
2022-12-31T15:33:40.648Z,2.22
2022-12-31T15:36:22.774Z,2.92
2022-12-31T15:38:50.309Z,2.70
2022-12-31T15:41:20.194Z,3.97
2022-12-31T15:44:06.196Z,3.88
2022-12-31T15:46:39.716Z,3.90
2022-12-31T15:49:15.915Z,3.65
2022-12-31T15:52:00.441Z,4.00
2022-12-31T15:54:45.467Z,3.35
2022-12-31T15:57:36.943Z,3.55
2022-12-31T16:00:37.804Z,3.90
2022-12-31T16:03:04.730Z,4.03
2022-12-31T16:05:35.116Z,3.58
2022-12-31T16:08:02.381Z,3.72
2022-12-31T16:10:31.892Z,4.68
2022-12-31T16:12:59.971Z,4.63
2022-12-31T16:15:30.268Z,3.88
2022-12-31T16:18:06.207Z,8.20
2022-12-31T16:20:34.297Z,9.93
2022-12-31T16:23:02.852Z,4.00
2022-12-31T16:25:32.908Z,3.42
2022-12-31T16:28:02.597Z,4.50
2022-12-31T16:30:31.544Z,3.92
2022-12-31T16:33:01.973Z,4.20
2022-12-31T16:35:34.111Z,4.50
2022-12-31T16:38:17.431Z,4.55
2022-12-31T16:41:14.867Z,4.18
2022-12-31T16:43:42.693Z,3.80
2022-12-31T16:46:31.128Z,3.97
2022-12-31T16:49:19.979Z,4.35
2022-12-31T16:51:47.278Z,3.30
2022-12-31T16:54:29.092Z,3.15
2022-12-31T16:56:58.437Z,3.83
2022-12-31T16:59:40.900Z,3.13
2022-12-31T17:02:18.822Z,11.32
2022-12-31T17:04:56.115Z,5.05
2022-12-31T17:07:32.418Z,4.32
2022-12-31T17:10:08.376Z,4.25
2022-12-31T17:13:00.941Z,4.28
2022-12-31T17:15:38.486Z,3.50
2022-12-31T17:18:05.881Z,4.30
2022-12-31T17:20:33.970Z,5.20
2022-12-31T17:23:07.480Z,3.63
2022-12-31T17:25:37.060Z,4.38
2022-12-31T17:28:24.488Z,3.40
2022-12-31T17:30:51.732Z,3.85
2022-12-31T17:33:21.218Z,4.00
2022-12-31T17:35:53.949Z,4.45
2022-12-31T17:38:23.605Z,4.90
2022-12-31T17:40:53.116Z,4.50
2022-12-31T17:43:22.006Z,4.45
2022-12-31T17:45:51.273Z,3.95
2022-12-31T17:48:19.667Z,4.15
2022-12-31T17:50:51.553Z,4.25
2022-12-31T17:53:18.361Z,4.28
2022-12-31T17:55:48.814Z,5.78
2022-12-31T17:58:38.310Z,4.72
2022-12-31T18:01:09.737Z,5.22
2022-12-31T18:03:36.502Z,5.30
2022-12-31T18:06:03.252Z,6.32
2022-12-31T18:08:29.992Z,7.43
2022-12-31T18:10:57.151Z,9.48
2022-12-31T18:13:26.268Z,8.00
2022-12-31T18:15:54.253Z,7.00
2022-12-31T18:18:26.450Z,18.35
2022-12-31T18:21:05.161Z,4.85
2022-12-31T18:23:40.307Z,6.72
2022-12-31T18:26:07.109Z,6.90
2022-12-31T18:28:33.826Z,7.85
2022-12-31T18:31:00.771Z,7.30
2022-12-31T18:33:27.545Z,5.72
2022-12-31T18:36:10.568Z,6.00
2022-12-31T18:38:37.397Z,6.88
2022-12-31T18:41:04.383Z,5.57
2022-12-31T18:43:31.176Z,4.38
2022-12-31T18:45:58.273Z,4.90
2022-12-31T18:48:25.161Z,4.50
2022-12-31T18:50:51.930Z,6.22
2022-12-31T18:53:25.018Z,5.53
2022-12-31T18:55:55.220Z,4.88
2022-12-31T18:58:22.255Z,4.88
2022-12-31T19:00:50.272Z,5.28
2022-12-31T19:03:22.792Z,4.80
2022-12-31T19:05:51.670Z,6.75
2022-12-31T19:08:19.195Z,5.63
2022-12-31T19:10:46.556Z,7.68
2022-12-31T19:13:15.976Z,11.00
2022-12-31T19:15:51.811Z,10.18
2022-12-31T19:18:19.244Z,7.93
2022-12-31T19:20:46.264Z,8.05
2022-12-31T19:23:18.962Z,9.43
2022-12-31T19:26:22.506Z,9.32
2022-12-31T19:28:50.652Z,9.07
2022-12-31T19:31:17.882Z,8.27
2022-12-31T19:33:44.776Z,8.23
2022-12-31T19:36:17.302Z,7.93
2022-12-31T19:38:45.170Z,5.70
2022-12-31T19:41:17.917Z,6.20
2022-12-31T19:43:45.122Z,6.78
2022-12-31T19:46:14.012Z,6.57
2022-12-31T19:48:40.934Z,17.95
2022-12-31T19:51:15.172Z,7.60
2022-12-31T19:53:42.012Z,7.05
2022-12-31T19:56:13.365Z,6.72
2022-12-31T19:58:40.161Z,10.63
2022-12-31T20:01:07.553Z,10.73
2022-12-31T20:03:34.539Z,8.35
2022-12-31T20:06:06.915Z,9.30
2022-12-31T20:08:37.291Z,9.13
2022-12-31T20:11:15.851Z,9.40
2022-12-31T20:13:43.240Z,12.20
2022-12-31T20:16:15.347Z,16.77
2022-12-31T20:18:43.246Z,18.80
2022-12-31T20:21:12.957Z,25.73
2022-12-31T20:23:39.873Z,23.20
2022-12-31T20:26:06.983Z,15.80
2022-12-31T20:28:33.810Z,10.90
2022-12-31T20:31:07.881Z,10.55
2022-12-31T20:33:34.829Z,9.13
2022-12-31T20:36:03.993Z,10.95
2022-12-31T20:38:30.960Z,9.65
2022-12-31T20:41:14.982Z,17.33
2022-12-31T20:43:42.069Z,8.32
2022-12-31T20:46:15.416Z,9.77
2022-12-31T20:48:43.855Z,10.38
2022-12-31T20:51:10.684Z,11.98
2022-12-31T20:53:37.660Z,7.40
2022-12-31T20:56:08.874Z,11.27
2022-12-31T20:58:36.105Z,16.25
2022-12-31T21:01:06.617Z,13.05
2022-12-31T21:06:22.919Z,9.88
2022-12-31T21:08:50.018Z,11.27
2022-12-31T21:11:16.877Z,8.80
2022-12-31T21:13:43.723Z,13.02
2022-12-31T21:16:10.549Z,21.17
2022-12-31T21:18:37.355Z,15.57
2022-12-31T21:21:04.282Z,7.25
2022-12-31T21:23:31.328Z,7.80
2022-12-31T21:25:58.065Z,12.30
2022-12-31T21:28:24.843Z,8.40
2022-12-31T21:30:57.760Z,10.93
2022-12-31T21:33:24.623Z,11.23
2022-12-31T21:35:53.766Z,28.55
2022-12-31T21:38:21.618Z,19.75
2022-12-31T21:40:48.928Z,9.10
2022-12-31T21:43:16.535Z,48.35
2022-12-31T21:45:43.653Z,8.90
2022-12-31T21:48:15.307Z,8.70
2022-12-31T21:50:44.693Z,7.50
2022-12-31T21:53:12.888Z,15.93
2022-12-31T21:55:39.708Z,8.43
2022-12-31T22:00:54.090Z,9.43
2022-12-31T22:03:21.168Z,8.77
2022-12-31T22:05:50.627Z,8.00
2022-12-31T22:08:18.016Z,7.35
2022-12-31T22:10:52.168Z,8.15
2022-12-31T22:13:19.910Z,7.28
2022-12-31T22:15:48.337Z,8.60
2022-12-31T22:18:16.432Z,6.85
2022-12-31T22:20:43.523Z,7.20
2022-12-31T22:23:10.727Z,9.13
2022-12-31T22:25:38.817Z,7.05
2022-12-31T22:30:53.980Z,14.00
2022-12-31T22:33:20.890Z,9.65
2022-12-31T22:35:59.086Z,12.00
2022-12-31T22:38:26.917Z,9.43
2022-12-31T22:41:08.688Z,43.83
2022-12-31T22:43:38.777Z,12.70
2022-12-31T22:46:10.439Z,10.82
2022-12-31T22:48:37.862Z,9.35
2022-12-31T22:51:05.197Z,13.35
2022-12-31T22:53:32.555Z,14.85
2022-12-31T22:55:59.537Z,20.17
2022-12-31T22:58:26.948Z,21.77
2022-12-31T23:00:54.117Z,246.63
2022-12-31T23:03:21.416Z,192.75
2022-12-31T23:05:52.638Z,306.95
2022-12-31T23:08:23.965Z,204.68
2022-12-31T23:10:53.297Z,160.10
2022-12-31T23:13:21.004Z,256.33
2022-12-31T23:15:51.209Z,136.85
2022-12-31T23:18:18.181Z,103.93
2022-12-31T23:20:45.711Z,95.57
2022-12-31T23:23:18.775Z,210.77
2022-12-31T23:25:51.324Z,117.13
2022-12-31T23:28:24.404Z,70.70
2022-12-31T23:30:52.357Z,87.50
2022-12-31T23:33:25.439Z,139.07
2022-12-31T23:36:03.411Z,81.95
2022-12-31T23:38:30.518Z,60.72
2022-12-31T23:40:57.689Z,208.30
2022-12-31T23:43:25.361Z,97.28
2022-12-31T23:45:53.376Z,69.50
2022-12-31T23:48:20.659Z,58.47
2022-12-31T23:50:53.764Z,49.40
2022-12-31T23:53:22.192Z,42.15
2022-12-31T23:55:49.226Z,61.03
2022-12-31T23:58:16.354Z,31.88
